Farmersville's Hourly Summary for Wednesday, May 9, 2018
Hour Temp
(f)
RH
(%)
Solar Rad.
(MJ/m2)
Rainfall
(in)
Wind
(mph)
5/9/2018 12:00 AM 70 66 0 0 1.14
5/9/2018 1:00 AM 70 63 0 0 1.95
5/9/2018 2:00 AM 72 53 0 0 6
5/9/2018 3:00 AM 73 49 0 0 7.55
5/9/2018 4:00 AM 71 53 0 0 6.03
5/9/2018 5:00 AM 69 54 0 0 3.96
5/9/2018 6:00 AM 67 57 0 0 3.75
5/9/2018 7:00 AM 65 61 0.02 0 2.75
5/9/2018 8:00 AM 65 66 0.41 0 2.1
5/9/2018 9:00 AM 69 61 0.85 0 4.21
5/9/2018 10:00 AM 72 56 0.53 0 3.79
5/9/2018 11:00 AM 75 52 2.34 0 5.09
5/9/2018 12:00 PM 77 47 2.56 0 6.37
5/9/2018 1:00 PM 80 40 3.08 0 7.35
5/9/2018 2:00 PM 82 40 3.13 0 7.44
5/9/2018 3:00 PM 83 39 3.01 0 7.6
5/9/2018 4:00 PM 84 37 2.66 0 7.34
5/9/2018 5:00 PM 84 39 2.19 0 5.99
5/9/2018 6:00 PM 84 39 1.59 0 5.88
5/9/2018 7:00 PM 83 41 0.92 0 5.34
5/9/2018 8:00 PM 80 44 0.31 0 2.67
5/9/2018 9:00 PM 75 52 0.01 0 0.2
5/9/2018 10:00 PM 72 60 0 0 0.27
5/9/2018 11:00 PM 72 60 0 0 0.76
Data Summary 74 51 23.61 0.00 4.40